sensor_id;sensor_type;location;lat;lon;timestamp;pressure;altitude;pressure_sealevel;temperature;humidity
13367;BME280;6752;52.612;13.630;2023-05-09T00:05:00;101809.16;;;7.82;99.10
13367;BME280;6752;52.612;13.630;2023-05-09T00:10:02;101809.99;;;7.78;99.08
13367;BME280;6752;52.612;13.630;2023-05-09T00:15:04;101805.25;;;7.76;99.71
13367;BME280;6752;52.612;13.630;2023-05-09T00:20:07;101797.34;;;7.86;99.58
13367;BME280;6752;52.612;13.630;2023-05-09T00:25:09;101800.58;;;7.77;99.69
13367;BME280;6752;52.612;13.630;2023-05-09T00:30:11;101798.23;;;7.70;100.00
13367;BME280;6752;52.612;13.630;2023-05-09T00:35:13;101799.44;;;7.68;100.00
13367;BME280;6752;52.612;13.630;2023-05-09T00:40:16;101801.34;;;7.59;100.00
13367;BME280;6752;52.612;13.630;2023-05-09T00:45:18;101800.25;;;7.49;100.00
13367;BME280;6752;52.612;13.630;2023-05-09T00:50:21;101794.12;;;7.55;100.00
13367;BME280;6752;52.612;13.630;2023-05-09T00:55:23;101788.00;;;7.37;100.00
13367;BME280;6752;52.612;13.630;2023-05-09T01:00:25;101791.50;;;7.18;100.00
13367;BME280;6752;52.612;13.630;2023-05-09T01:05:50;101790.39;;;7.20;100.00
13367;BME280;6752;52.612;13.630;2023-05-09T01:15:50;101782.80;;;7.11;100.00
13367;BME280;6752;52.612;13.630;2023-05-09T01:21:01;101776.84;;;7.08;100.00
13367;BME280;6752;52.612;13.630;2023-05-09T01:31:11;101765.00;;;6.97;100.00
13367;BME280;6752;52.612;13.630;2023-05-09T01:36:15;101764.76;;;6.91;100.00
13367;BME280;6752;52.612;13.630;2023-05-09T01:41:16;101763.56;;;6.81;100.00
13367;BME280;6752;52.612;13.630;2023-05-09T01:46:18;101759.84;;;6.78;100.00
13367;BME280;6752;52.612;13.630;2023-05-09T01:51:20;101752.15;;;6.66;100.00
13367;BME280;6752;52.612;13.630;2023-05-09T01:56:23;101753.91;;;6.74;100.00
13367;BME280;6752;52.612;13.630;2023-05-09T02:01:25;101757.31;;;6.68;100.00
13367;BME280;6752;52.612;13.630;2023-05-09T02:06:27;101752.89;;;6.51;100.00
13367;BME280;6752;52.612;13.630;2023-05-09T02:11:30;101753.05;;;6.58;100.00
13367;BME280;6752;52.612;13.630;2023-05-09T02:16:32;101751.97;;;6.43;100.00
13367;BME280;6752;52.612;13.630;2023-05-09T02:21:34;101750.28;;;6.71;100.00
13367;BME280;6752;52.612;13.630;2023-05-09T02:26:37;101745.53;;;6.44;100.00
13367;BME280;6752;52.612;13.630;2023-05-09T02:31:48;101757.97;;;6.42;100.00
13367;BME280;6752;52.612;13.630;2023-05-09T02:36:51;101764.80;;;6.33;100.00
13367;BME280;6752;52.612;13.630;2023-05-09T02:41:53;101760.65;;;6.34;100.00
13367;BME280;6752;52.612;13.630;2023-05-09T02:46:55;101750.86;;;6.41;100.00
13367;BME280;6752;52.612;13.630;2023-05-09T02:51:58;101764.45;;;6.28;100.00
13367;BME280;6752;52.612;13.630;2023-05-09T02:57:00;101758.53;;;6.28;100.00
13367;BME280;6752;52.612;13.630;2023-05-09T03:02:02;101750.58;;;6.19;100.00
13367;BME280;6752;52.612;13.630;2023-05-09T03:07:05;101752.31;;;6.15;100.00
13367;BME280;6752;52.612;13.630;2023-05-09T03:12:07;101756.03;;;6.14;100.00
13367;BME280;6752;52.612;13.630;2023-05-09T03:17:09;101751.02;;;5.98;100.00
13367;BME280;6752;52.612;13.630;2023-05-09T03:22:12;101750.86;;;6.04;100.00
13367;BME280;6752;52.612;13.630;2023-05-09T03:27:14;101750.20;;;6.10;100.00
13367;BME280;6752;52.612;13.630;2023-05-09T03:32:17;101745.70;;;6.09;100.00
13367;BME280;6752;52.612;13.630;2023-05-09T03:37:19;101744.19;;;6.11;100.00
13367;BME280;6752;52.612;13.630;2023-05-09T03:42:21;101739.45;;;6.13;100.00
13367;BME280;6752;52.612;13.630;2023-05-09T03:47:24;101740.77;;;6.22;100.00
13367;BME280;6752;52.612;13.630;2023-05-09T03:52:26;101741.34;;;6.21;100.00
13367;BME280;6752;52.612;13.630;2023-05-09T03:57:28;101741.86;;;6.20;100.00
13367;BME280;6752;52.612;13.630;2023-05-09T04:02:34;101743.47;;;6.34;100.00
13367;BME280;6752;52.612;13.630;2023-05-09T04:07:36;101731.98;;;6.48;100.00
13367;BME280;6752;52.612;13.630;2023-05-09T04:12:38;101739.27;;;6.52;100.00
13367;BME280;6752;52.612;13.630;2023-05-09T04:17:41;101736.80;;;6.62;100.00
13367;BME280;6752;52.612;13.630;2023-05-09T04:22:43;101728.67;;;6.82;100.00
13367;BME280;6752;52.612;13.630;2023-05-09T04:27:45;101726.05;;;6.93;100.00
13367;BME280;6752;52.612;13.630;2023-05-09T04:32:48;101732.19;;;7.07;99.86
13367;BME280;6752;52.612;13.630;2023-05-09T04:37:50;101717.91;;;7.29;98.60
13367;BME280;6752;52.612;13.630;2023-05-09T04:42:52;101719.00;;;7.55;97.03
13367;BME280;6752;52.612;13.630;2023-05-09T04:48:01;101725.00;;;7.78;95.04
13367;BME280;6752;52.612;13.630;2023-05-09T04:53:02;101722.77;;;8.05;92.33
13367;BME280;6752;52.612;13.630;2023-05-09T04:58:04;101727.53;;;8.26;90.90
13367;BME280;6752;52.612;13.630;2023-05-09T05:03:07;101725.50;;;8.55;89.31
13367;BME280;6752;52.612;13.630;2023-05-09T05:08:09;101719.73;;;8.72;87.17
13367;BME280;6752;52.612;13.630;2023-05-09T05:13:12;101720.39;;;8.93;86.51
13367;BME280;6752;52.612;13.630;2023-05-09T05:18:14;101709.02;;;9.16;83.85
13367;BME280;6752;52.612;13.630;2023-05-09T05:23:16;101702.58;;;9.46;83.12
13367;BME280;6752;52.612;13.630;2023-05-09T05:28:19;101702.98;;;9.54;80.04
13367;BME280;6752;52.612;13.630;2023-05-09T05:33:21;101710.30;;;9.94;78.62
13367;BME280;6752;52.612;13.630;2023-05-09T05:38:23;101708.09;;;10.14;76.70
13367;BME280;6752;52.612;13.630;2023-05-09T05:43:26;101704.07;;;10.18;75.35
13367;BME280;6752;52.612;13.630;2023-05-09T05:48:28;101702.47;;;10.55;74.37
13367;BME280;6752;52.612;13.630;2023-05-09T05:53:30;101691.26;;;10.82;73.16
13367;BME280;6752;52.612;13.630;2023-05-09T05:58:33;101692.75;;;10.85;71.72
13367;BME280;6752;52.612;13.630;2023-05-09T06:03:35;101672.22;;;11.03;69.71
13367;BME280;6752;52.612;13.630;2023-05-09T06:08:37;101678.97;;;11.62;69.75
13367;BME280;6752;52.612;13.630;2023-05-09T06:13:40;101668.00;;;11.59;67.99
13367;BME280;6752;52.612;13.630;2023-05-09T06:18:42;101658.73;;;12.01;66.55
13367;BME280;6752;52.612;13.630;2023-05-09T06:23:44;101646.47;;;12.27;65.63
13367;BME280;6752;52.612;13.630;2023-05-09T06:28:47;101649.98;;;12.62;65.66
13367;BME280;6752;52.612;13.630;2023-05-09T06:33:49;101632.72;;;12.45;62.97
13367;BME280;6752;52.612;13.630;2023-05-09T06:38:51;101627.26;;;12.61;62.44
13367;BME280;6752;52.612;13.630;2023-05-09T06:43:54;101627.92;;;12.99;61.56
13367;BME280;6752;52.612;13.630;2023-05-09T06:48:56;101623.02;;;12.75;60.27
13367;BME280;6752;52.612;13.630;2023-05-09T06:53:58;101625.98;;;12.84;59.83
13367;BME280;6752;52.612;13.630;2023-05-09T06:59:01;101608.41;;;13.31;58.44
13367;BME280;6752;52.612;13.630;2023-05-09T07:04:03;101599.30;;;13.40;57.63
13367;BME280;6752;52.612;13.630;2023-05-09T07:09:05;101586.05;;;13.98;57.28
13367;BME280;6752;52.612;13.630;2023-05-09T07:14:08;101580.73;;;13.27;53.76
13367;BME280;6752;52.612;13.630;2023-05-09T07:19:10;101569.00;;;14.49;53.47
13367;BME280;6752;52.612;13.630;2023-05-09T07:24:12;101544.94;;;14.19;53.00
13367;BME280;6752;52.612;13.630;2023-05-09T07:29:15;101538.98;;;14.54;51.56
13367;BME280;6752;52.612;13.630;2023-05-09T07:34:17;101534.29;;;14.98;51.65
13367;BME280;6752;52.612;13.630;2023-05-09T07:39:20;101525.13;;;14.76;50.08
13367;BME280;6752;52.612;13.630;2023-05-09T07:44:22;101515.54;;;15.10;49.84
13367;BME280;6752;52.612;13.630;2023-05-09T07:49:24;101497.33;;;15.45;49.92
13367;BME280;6752;52.612;13.630;2023-05-09T07:54:27;101504.98;;;15.19;48.85
13367;BME280;6752;52.612;13.630;2023-05-09T07:59:29;101482.84;;;14.99;47.08
13367;BME280;6752;52.612;13.630;2023-05-09T08:04:31;101497.63;;;15.16;48.07
13367;BME280;6752;52.612;13.630;2023-05-09T08:09:34;101482.14;;;15.67;48.34
13367;BME280;6752;52.612;13.630;2023-05-09T08:14:36;101474.36;;;15.55;47.10
13367;BME280;6752;52.612;13.630;2023-05-09T08:19:38;101474.61;;;15.62;45.86
13367;BME280;6752;52.612;13.630;2023-05-09T08:24:41;101451.36;;;15.52;46.63
13367;BME280;6752;52.612;13.630;2023-05-09T08:29:43;101440.09;;;15.84;46.32
13367;BME280;6752;52.612;13.630;2023-05-09T08:34:46;101449.49;;;16.03;46.95
13367;BME280;6752;52.612;13.630;2023-05-09T08:39:48;101440.45;;;16.57;46.45
13367;BME280;6752;52.612;13.630;2023-05-09T08:44:50;101441.20;;;16.18;45.88
13367;BME280;6752;52.612;13.630;2023-05-09T08:49:53;101432.22;;;16.78;46.67
13367;BME280;6752;52.612;13.630;2023-05-09T08:54:55;101432.48;;;16.53;45.65
13367;BME280;6752;52.612;13.630;2023-05-09T08:59:57;101433.53;;;17.29;44.79
13367;BME280;6752;52.612;13.630;2023-05-09T09:05:00;101421.21;;;17.12;45.43
13367;BME280;6752;52.612;13.630;2023-05-09T09:10:02;101414.30;;;17.26;44.04
13367;BME280;6752;52.612;13.630;2023-05-09T09:15:04;101412.64;;;16.77;43.75
13367;BME280;6752;52.612;13.630;2023-05-09T09:20:07;101399.35;;;17.36;42.67
13367;BME280;6752;52.612;13.630;2023-05-09T09:25:11;101398.92;;;17.28;43.05
13367;BME280;6752;52.612;13.630;2023-05-09T09:30:14;101408.03;;;17.28;42.19
13367;BME280;6752;52.612;13.630;2023-05-09T09:35:16;101396.51;;;17.40;41.53
13367;BME280;6752;52.612;13.630;2023-05-09T09:40:18;101385.19;;;17.86;43.10
13367;BME280;6752;52.612;13.630;2023-05-09T09:45:21;101388.52;;;18.16;43.29
13367;BME280;6752;52.612;13.630;2023-05-09T09:50:23;101378.31;;;18.36;43.85
13367;BME280;6752;52.612;13.630;2023-05-09T09:55:25;101349.97;;;18.87;43.05
13367;BME280;6752;52.612;13.630;2023-05-09T10:00:28;101370.73;;;18.67;42.83
13367;BME280;6752;52.612;13.630;2023-05-09T10:05:30;101359.09;;;18.74;43.05
13367;BME280;6752;52.612;13.630;2023-05-09T10:10:33;101356.78;;;18.35;41.62
13367;BME280;6752;52.612;13.630;2023-05-09T10:15:35;101342.78;;;18.72;42.70
13367;BME280;6752;52.612;13.630;2023-05-09T10:20:37;101345.98;;;18.64;41.96
13367;BME280;6752;52.612;13.630;2023-05-09T10:25:46;101335.97;;;18.17;42.76
13367;BME280;6752;52.612;13.630;2023-05-09T10:31:11;101337.55;;;18.62;41.45
13367;BME280;6752;52.612;13.630;2023-05-09T10:36:08;101327.16;;;18.39;41.43
13367;BME280;6752;52.612;13.630;2023-05-09T10:41:10;101317.84;;;19.19;41.65
13367;BME280;6752;52.612;13.630;2023-05-09T10:46:12;101309.52;;;19.32;42.16
13367;BME280;6752;52.612;13.630;2023-05-09T10:51:15;101303.09;;;19.74;41.16
13367;BME280;6752;52.612;13.630;2023-05-09T10:56:33;101299.73;;;20.15;42.65
13367;BME280;6752;52.612;13.630;2023-05-09T11:01:35;101295.75;;;19.95;41.33
13367;BME280;6752;52.612;13.630;2023-05-09T11:06:52;101283.70;;;20.22;40.11
13367;BME280;6752;52.612;13.630;2023-05-09T11:17:07;101263.63;;;20.20;39.66
13367;BME280;6752;52.612;13.630;2023-05-09T11:22:20;101260.72;;;20.16;40.40
13367;BME280;6752;52.612;13.630;2023-05-09T11:27:26;101241.51;;;20.31;40.26
13367;BME280;6752;52.612;13.630;2023-05-09T11:32:29;101236.83;;;20.83;40.35
13367;BME280;6752;52.612;13.630;2023-05-09T11:37:30;101224.11;;;20.38;39.10
13367;BME280;6752;52.612;13.630;2023-05-09T11:42:32;101224.35;;;21.41;39.69
13367;BME280;6752;52.612;13.630;2023-05-09T11:47:35;101214.36;;;20.66;39.12
13367;BME280;6752;52.612;13.630;2023-05-09T11:52:37;101200.25;;;20.24;40.03
13367;BME280;6752;52.612;13.630;2023-05-09T11:57:43;101201.73;;;21.23;40.33
13367;BME280;6752;52.612;13.630;2023-05-09T12:02:44;101182.89;;;20.49;39.82
13367;BME280;6752;52.612;13.630;2023-05-09T12:07:49;101187.33;;;20.50;39.70
13367;BME280;6752;52.612;13.630;2023-05-09T12:12:51;101171.12;;;21.04;40.26
13367;BME280;6752;52.612;13.630;2023-05-09T12:18:00;101156.59;;;20.77;40.07
13367;BME280;6752;52.612;13.630;2023-05-09T12:23:02;101153.75;;;20.26;40.11
13367;BME280;6752;52.612;13.630;2023-05-09T12:28:04;101132.49;;;20.54;40.14
13367;BME280;6752;52.612;13.630;2023-05-09T12:33:06;101130.50;;;20.17;39.81
13367;BME280;6752;52.612;13.630;2023-05-09T12:38:12;101126.67;;;20.76;40.09
13367;BME280;6752;52.612;13.630;2023-05-09T12:43:11;101116.72;;;20.86;39.59
13367;BME280;6752;52.612;13.630;2023-05-09T12:48:14;101112.64;;;20.24;38.97
13367;BME280;6752;52.612;13.630;2023-05-09T12:53:25;101119.19;;;20.36;40.06
13367;BME280;6752;52.612;13.630;2023-05-09T12:58:31;101098.02;;;20.54;38.18
13367;BME280;6752;52.612;13.630;2023-05-09T13:03:33;101087.06;;;20.91;38.54
13367;BME280;6752;52.612;13.630;2023-05-09T13:08:41;101072.20;;;20.02;38.02
13367;BME280;6752;52.612;13.630;2023-05-09T13:13:43;101074.61;;;20.73;38.84
13367;BME280;6752;52.612;13.630;2023-05-09T13:18:46;101070.72;;;20.21;39.04
13367;BME280;6752;52.612;13.630;2023-05-09T13:23:48;101072.64;;;20.94;39.48
13367;BME280;6752;52.612;13.630;2023-05-09T13:28:50;101058.98;;;20.60;39.45
13367;BME280;6752;52.612;13.630;2023-05-09T13:33:53;101059.79;;;20.84;38.78
13367;BME280;6752;52.612;13.630;2023-05-09T13:38:55;101045.14;;;20.43;39.31
13367;BME280;6752;52.612;13.630;2023-05-09T13:43:57;101038.99;;;20.89;39.33
13367;BME280;6752;52.612;13.630;2023-05-09T13:49:00;101046.90;;;20.30;38.79
13367;BME280;6752;52.612;13.630;2023-05-09T13:54:02;101025.62;;;21.04;40.58
13367;BME280;6752;52.612;13.630;2023-05-09T13:59:05;101017.73;;;21.04;40.62
13367;BME280;6752;52.612;13.630;2023-05-09T14:04:07;101010.95;;;20.43;38.62
13367;BME280;6752;52.612;13.630;2023-05-09T14:09:09;101011.21;;;20.51;36.67
13367;BME280;6752;52.612;13.630;2023-05-09T14:14:11;100986.98;;;20.53;37.46
13367;BME280;6752;52.612;13.630;2023-05-09T14:19:14;100974.54;;;20.45;36.79
13367;BME280;6752;52.612;13.630;2023-05-09T14:24:16;100962.74;;;20.54;37.87
13367;BME280;6752;52.612;13.630;2023-05-09T14:29:19;100965.86;;;20.85;39.71
13367;BME280;6752;52.612;13.630;2023-05-09T14:34:21;100968.70;;;20.31;40.10
13367;BME280;6752;52.612;13.630;2023-05-09T14:39:23;100952.52;;;20.49;39.24
13367;BME280;6752;52.612;13.630;2023-05-09T14:44:26;100951.95;;;20.60;39.00
13367;BME280;6752;52.612;13.630;2023-05-09T14:49:28;100946.83;;;20.50;41.01
13367;BME280;6752;52.612;13.630;2023-05-09T14:54:30;100932.69;;;20.64;41.55
13367;BME280;6752;52.612;13.630;2023-05-09T14:59:33;100928.45;;;20.22;38.55
13367;BME280;6752;52.612;13.630;2023-05-09T15:04:35;100916.67;;;20.46;39.13
13367;BME280;6752;52.612;13.630;2023-05-09T15:09:37;100910.73;;;20.86;41.04
13367;BME280;6752;52.612;13.630;2023-05-09T15:14:40;100908.65;;;20.27;39.41
13367;BME280;6752;52.612;13.630;2023-05-09T15:19:42;100904.23;;;20.21;39.29
13367;BME280;6752;52.612;13.630;2023-05-09T15:24:44;100900.66;;;20.13;39.68
13367;BME280;6752;52.612;13.630;2023-05-09T15:29:47;100893.88;;;20.17;39.63
13367;BME280;6752;52.612;13.630;2023-05-09T15:34:49;100886.02;;;19.89;37.94
13367;BME280;6752;52.612;13.630;2023-05-09T15:39:51;100871.89;;;19.83;37.37
13367;BME280;6752;52.612;13.630;2023-05-09T15:44:53;100878.73;;;20.39;39.32
13367;BME280;6752;52.612;13.630;2023-05-09T15:49:56;100869.69;;;19.95;40.01
13367;BME280;6752;52.612;13.630;2023-05-09T15:54:58;100866.38;;;19.75;41.08
13367;BME280;6752;52.612;13.630;2023-05-09T16:00:01;100864.81;;;20.07;41.16
13367;BME280;6752;52.612;13.630;2023-05-09T16:05:03;100850.89;;;19.90;38.96
13367;BME280;6752;52.612;13.630;2023-05-09T16:10:05;100845.79;;;19.70;39.05
13367;BME280;6752;52.612;13.630;2023-05-09T16:15:08;100845.38;;;19.69;40.88
13367;BME280;6752;52.612;13.630;2023-05-09T16:20:10;100852.97;;;19.55;40.31
13367;BME280;6752;52.612;13.630;2023-05-09T16:25:12;100833.49;;;19.64;38.58
13367;BME280;6752;52.612;13.630;2023-05-09T16:30:15;100823.07;;;19.29;38.82
13367;BME280;6752;52.612;13.630;2023-05-09T16:35:17;100832.44;;;19.13;39.92
13367;BME280;6752;52.612;13.630;2023-05-09T16:40:19;100829.98;;;19.19;39.69
13367;BME280;6752;52.612;13.630;2023-05-09T16:45:21;100830.50;;;19.06;40.82
13367;BME280;6752;52.612;13.630;2023-05-09T16:50:24;100825.90;;;18.91;40.89
13367;BME280;6752;52.612;13.630;2023-05-09T16:55:26;100828.59;;;18.65;41.21
13367;BME280;6752;52.612;13.630;2023-05-09T17:00:28;100826.84;;;18.73;42.11
13367;BME280;6752;52.612;13.630;2023-05-09T17:05:31;100821.34;;;18.51;41.25
13367;BME280;6752;52.612;13.630;2023-05-09T17:10:35;100814.37;;;18.36;40.77
13367;BME280;6752;52.612;13.630;2023-05-09T17:15:38;100810.61;;;18.26;41.71
13367;BME280;6752;52.612;13.630;2023-05-09T17:20:40;100817.30;;;18.14;43.16
13367;BME280;6752;52.612;13.630;2023-05-09T17:25:43;100812.97;;;18.02;43.04
13367;BME280;6752;52.612;13.630;2023-05-09T17:30:45;100809.02;;;17.91;43.76
13367;BME280;6752;52.612;13.630;2023-05-09T17:35:47;100815.02;;;17.77;43.95
13367;BME280;6752;52.612;13.630;2023-05-09T17:40:50;100813.07;;;17.46;44.99
13367;BME280;6752;52.612;13.630;2023-05-09T17:45:52;100816.22;;;17.44;44.85
13367;BME280;6752;52.612;13.630;2023-05-09T17:50:55;100816.24;;;17.14;46.44
13367;BME280;6752;52.612;13.630;2023-05-09T17:55:57;100808.36;;;16.98;46.00
13367;BME280;6752;52.612;13.630;2023-05-09T18:00:59;100810.48;;;16.56;47.32
13367;BME280;6752;52.612;13.630;2023-05-09T18:06:02;100804.68;;;16.41;47.52
13367;BME280;6752;52.612;13.630;2023-05-09T18:11:04;100808.22;;;16.28;48.28
13367;BME280;6752;52.612;13.630;2023-05-09T18:16:06;100811.71;;;15.91;49.07
13367;BME280;6752;52.612;13.630;2023-05-09T18:21:09;100802.91;;;15.83;49.61
13367;BME280;6752;52.612;13.630;2023-05-09T18:26:11;100808.11;;;15.38;50.97
13367;BME280;6752;52.612;13.630;2023-05-09T18:31:13;100799.67;;;15.36;50.64
13367;BME280;6752;52.612;13.630;2023-05-09T18:36:16;100801.98;;;15.16;51.39
13367;BME280;6752;52.612;13.630;2023-05-09T18:41:18;100811.17;;;15.02;51.54
13367;BME280;6752;52.612;13.630;2023-05-09T18:46:20;100811.67;;;14.91;51.75
13367;BME280;6752;52.612;13.630;2023-05-09T18:51:23;100809.38;;;14.79;51.87
13367;BME280;6752;52.612;13.630;2023-05-09T18:56:25;100812.12;;;14.79;51.89
13367;BME280;6752;52.612;13.630;2023-05-09T19:01:28;100811.66;;;14.48;53.29
13367;BME280;6752;52.612;13.630;2023-05-09T19:06:30;100816.34;;;14.38;54.09
13367;BME280;6752;52.612;13.630;2023-05-09T19:11:32;100804.35;;;14.16;55.42
13367;BME280;6752;52.612;13.630;2023-05-09T19:16:35;100804.09;;;14.03;56.22
13367;BME280;6752;52.612;13.630;2023-05-09T19:21:37;100803.20;;;14.00;57.10
13367;BME280;6752;52.612;13.630;2023-05-09T19:26:39;100806.78;;;13.83;58.12
13367;BME280;6752;52.612;13.630;2023-05-09T19:31:42;100797.45;;;13.76;58.99
13367;BME280;6752;52.612;13.630;2023-05-09T19:36:44;100792.63;;;13.74;58.75
13367;BME280;6752;52.612;13.630;2023-05-09T19:41:46;100786.00;;;13.61;58.33
13367;BME280;6752;52.612;13.630;2023-05-09T19:46:48;100779.94;;;13.53;58.18
13367;BME280;6752;52.612;13.630;2023-05-09T19:51:51;100778.84;;;13.43;58.66
13367;BME280;6752;52.612;13.630;2023-05-09T19:56:53;100778.61;;;13.27;59.16
13367;BME280;6752;52.612;13.630;2023-05-09T20:01:55;100780.64;;;13.37;58.07
13367;BME280;6752;52.612;13.630;2023-05-09T20:06:58;100780.99;;;13.41;57.46
13367;BME280;6752;52.612;13.630;2023-05-09T20:12:03;100774.21;;;13.31;57.47
13367;BME280;6752;52.612;13.630;2023-05-09T20:17:05;100765.23;;;13.28;57.27
13367;BME280;6752;52.612;13.630;2023-05-09T20:22:07;100763.47;;;13.24;57.26
13367;BME280;6752;52.612;13.630;2023-05-09T20:27:10;100759.96;;;13.20;57.29
13367;BME280;6752;52.612;13.630;2023-05-09T20:32:12;100753.73;;;13.13;57.29
13367;BME280;6752;52.612;13.630;2023-05-09T20:37:14;100743.33;;;13.13;56.97
13367;BME280;6752;52.612;13.630;2023-05-09T20:42:17;100746.72;;;13.05;57.76
13367;BME280;6752;52.612;13.630;2023-05-09T20:47:19;100743.52;;;12.94;58.61
13367;BME280;6752;52.612;13.630;2023-05-09T20:52:22;100741.80;;;12.96;58.77
13367;BME280;6752;52.612;13.630;2023-05-09T20:57:24;100735.20;;;12.88;59.33
13367;BME280;6752;52.612;13.630;2023-05-09T21:02:26;100728.53;;;12.90;59.64
13367;BME280;6752;52.612;13.630;2023-05-09T21:07:29;100728.73;;;12.77;60.33
13367;BME280;6752;52.612;13.630;2023-05-09T21:12:31;100724.32;;;12.70;61.06
13367;BME280;6752;52.612;13.630;2023-05-09T21:17:33;100722.16;;;12.60;61.86
13367;BME280;6752;52.612;13.630;2023-05-09T21:22:36;100718.16;;;12.39;63.72
13367;BME280;6752;52.612;13.630;2023-05-09T21:27:38;100712.93;;;12.37;64.26
13367;BME280;6752;52.612;13.630;2023-05-09T21:32:41;100703.95;;;12.34;64.47
13367;BME280;6752;52.612;13.630;2023-05-09T21:37:43;100709.81;;;12.19;65.52
13367;BME280;6752;52.612;13.630;2023-05-09T21:42:45;100700.11;;;12.14;66.11
13367;BME280;6752;52.612;13.630;2023-05-09T21:47:48;100695.89;;;12.05;66.74
13367;BME280;6752;52.612;13.630;2023-05-09T21:52:50;100693.42;;;11.95;67.26
13367;BME280;6752;52.612;13.630;2023-05-09T21:57:52;100689.25;;;11.92;67.68
13367;BME280;6752;52.612;13.630;2023-05-09T22:02:55;100687.27;;;11.84;68.30
13367;BME280;6752;52.612;13.630;2023-05-09T22:07:57;100677.28;;;11.84;68.17
13367;BME280;6752;52.612;13.630;2023-05-09T22:12:59;100680.03;;;11.81;68.47
13367;BME280;6752;52.612;13.630;2023-05-09T22:18:02;100683.39;;;11.70;69.26
13367;BME280;6752;52.612;13.630;2023-05-09T22:23:04;100679.50;;;11.63;69.87
13367;BME280;6752;52.612;13.630;2023-05-09T22:28:06;100676.81;;;11.60;70.20
13367;BME280;6752;52.612;13.630;2023-05-09T22:33:09;100677.32;;;11.50;71.15
13367;BME280;6752;52.612;13.630;2023-05-09T22:38:11;100669.75;;;11.43;72.05
13367;BME280;6752;52.612;13.630;2023-05-09T22:43:14;100670.36;;;11.32;72.98
13367;BME280;6752;52.612;13.630;2023-05-09T22:48:16;100669.41;;;11.33;73.66
13367;BME280;6752;52.612;13.630;2023-05-09T22:53:18;100672.37;;;11.31;74.05
13367;BME280;6752;52.612;13.630;2023-05-09T22:58:21;100664.91;;;11.23;74.55
13367;BME280;6752;52.612;13.630;2023-05-09T23:03:23;100649.56;;;11.04;76.05
13367;BME280;6752;52.612;13.630;2023-05-09T23:08:25;100650.28;;;10.96;76.88
13367;BME280;6752;52.612;13.630;2023-05-09T23:13:28;100652.12;;;10.90;77.69
13367;BME280;6752;52.612;13.630;2023-05-09T23:18:30;100646.98;;;10.91;77.84
13367;BME280;6752;52.612;13.630;2023-05-09T23:23:33;100655.66;;;10.69;79.51
13367;BME280;6752;52.612;13.630;2023-05-09T23:28:35;100652.38;;;10.57;80.96
13367;BME280;6752;52.612;13.630;2023-05-09T23:33:37;100651.05;;;10.53;81.60
13367;BME280;6752;52.612;13.630;2023-05-09T23:38:40;100645.32;;;10.49;82.41
13367;BME280;6752;52.612;13.630;2023-05-09T23:43:42;100649.05;;;10.39;83.50
13367;BME280;6752;52.612;13.630;2023-05-09T23:48:44;100646.01;;;10.25;84.90
13367;BME280;6752;52.612;13.630;2023-05-09T23:53:47;100640.09;;;10.32;84.92
13367;BME280;6752;52.612;13.630;2023-05-09T23:58:49;100640.78;;;10.24;85.60
